Time;durP1;ratioP1;P1;durP2;ratioP2;P2;SDS_P1;SDS_P2;PMS_P1;PMS_P2;Temp;Humidity;BMP_temperature;BMP_pressure;BME280_temperature;BME280_humidity;BME280_pressure;Samples;Min_cycle;Max_cycle;Signal;HPM_P1;HPM_P2
2023/09/22 00:01:58;;;;;;;6.72;0.50;;;;;;;15.72;100.00;99123.47;5092546;28;20074;-69
2023/09/22 00:05:02;;;;;;;1.02;0.40;;;;;;;15.66;100.00;99131.91;5093262;28;20043;-68
2023/09/22 00:08:06;;;;;;;9.82;0.80;;;;;;;15.71;100.00;99113.06;5093165;28;20062;-68
2023/09/22 00:11:10;;;;;;;2.90;0.63;;;;;;;15.73;100.00;99109.31;5108354;27;20054;-68
2023/09/22 00:14:13;;;;;;;4.00;1.10;;;;;;;15.50;100.00;99123.81;5133897;27;20470;-68
2023/09/22 00:17:17;;;;;;;4.75;0.95;;;;;;;15.30;100.00;99129.16;5133898;27;20042;-69
2023/09/22 00:20:21;;;;;;;2.78;0.52;;;;;;;15.22;100.00;99122.94;5133461;27;20559;-69
2023/09/22 00:23:24;;;;;;;5.47;0.85;;;;;;;15.40;100.00;99121.22;5133795;27;20100;-69
2023/09/22 00:26:27;;;;;;;4.43;1.05;;;;;;;15.38;100.00;99114.44;5133759;28;20046;-69
2023/09/22 00:29:30;;;;;;;2.72;0.60;;;;;;;15.36;100.00;99109.34;5133759;28;20046;-69
2023/09/22 00:32:34;;;;;;;9.70;1.05;;;;;;;15.47;100.00;99109.13;5133878;28;20452;-69
2023/09/22 00:35:37;;;;;;;7.55;1.00;;;;;;;15.48;100.00;99115.25;5132930;28;20037;-68
2023/09/22 00:38:41;;;;;;;7.43;0.65;;;;;;;15.37;100.00;99118.88;5133644;28;20065;-69
2023/09/22 00:41:45;;;;;;;5.47;0.70;;;;;;;15.28;100.00;99117.97;5133603;28;20513;-69
2023/09/22 00:44:48;;;;;;;3.55;0.60;;;;;;;15.43;100.00;99128.00;5133645;28;20037;-69
2023/09/22 00:47:52;;;;;;;3.67;0.85;;;;;;;15.40;100.00;99147.56;5133604;28;20050;-69
2023/09/22 00:50:57;;;;;;;7.85;0.90;;;;;;;15.17;100.00;99156.81;5133620;28;20046;-68
2023/09/22 00:54:00;;;;;;;4.45;0.85;;;;;;;15.28;100.00;99161.88;5132743;28;20042;-68
2023/09/22 00:57:04;;;;;;;2.38;0.80;;;;;;;14.95;100.00;99174.56;5132699;28;20080;-68
2023/09/22 01:00:08;;;;;;;3.95;1.08;;;;;;;15.08;100.00;99176.91;5133445;28;20119;-69
2023/09/22 01:03:12;;;;;;;4.00;1.00;;;;;;;15.14;100.00;99164.97;5132592;28;20052;-68
2023/09/22 01:06:15;;;;;;;2.83;0.80;;;;;;;14.95;100.00;99163.22;5132626;28;20042;-68
2023/09/22 01:09:18;;;;;;;2.47;0.60;;;;;;;14.88;100.00;99155.06;5132677;28;20038;-68
2023/09/22 01:12:22;;;;;;;1.80;0.65;;;;;;;14.95;100.00;99155.31;5133068;28;20054;-68
2023/09/22 01:15:25;;;;;;;2.70;0.80;;;;;;;15.04;100.00;99150.03;5133277;28;20061;-68
2023/09/22 01:18:29;;;;;;;6.10;0.90;;;;;;;14.58;100.00;99163.94;5132407;28;20046;-68
2023/09/22 01:21:33;;;;;;;8.10;0.75;;;;;;;14.36;100.00;99170.28;5132795;28;20100;-68
2023/09/22 01:24:36;;;;;;;2.65;0.80;;;;;;;14.34;100.00;99166.97;5133317;28;20092;-68
2023/09/22 01:27:39;;;;;;;3.33;0.70;;;;;;;13.99;100.00;99149.06;5133223;28;20057;-69
2023/09/22 01:30:43;;;;;;;4.00;0.90;;;;;;;14.04;100.00;99157.34;5120723;27;20043;-68
2023/09/22 01:33:46;;;;;;;3.92;0.50;;;;;;;14.06;100.00;99169.41;5136882;27;20100;-68
2023/09/22 01:36:49;;;;;;;3.67;0.80;;;;;;;14.22;100.00;99163.63;5136099;27;20427;-68
2023/09/22 01:39:53;;;;;;;5.78;0.98;;;;;;;14.26;100.00;99172.06;5136883;27;20096;-68
2023/09/22 01:42:56;;;;;;;3.70;0.90;;;;;;;14.32;100.00;99150.47;5136145;27;20118;-68
2023/09/22 01:46:00;;;;;;;5.60;0.90;;;;;;;14.14;95.99;99151.16;5135971;27;20042;-68
2023/09/22 01:49:03;;;;;;;3.75;0.90;;;;;;;14.14;94.41;99164.31;5136792;27;20074;-68
2023/09/22 01:52:06;;;;;;;2.38;0.68;;;;;;;14.14;97.51;99160.84;5136530;27;20108;-69
2023/09/22 01:55:10;;;;;;;4.00;0.80;;;;;;;14.21;97.19;99174.28;5136542;27;20095;-68
2023/09/22 01:58:13;;;;;;;3.58;0.75;;;;;;;14.17;98.69;99177.19;5136416;27;20135;-68
2023/09/22 02:01:17;;;;;;;6.88;1.60;;;;;;;14.21;98.07;99171.66;5136511;27;20219;-68
2023/09/22 02:04:21;;;;;;;2.13;0.70;;;;;;;14.14;95.17;99156.41;5135625;27;20122;-68
2023/09/22 02:07:24;;;;;;;6.57;0.70;;;;;;;14.11;92.01;99154.06;5136240;27;20034;-68
2023/09/22 02:10:28;;;;;;;5.80;0.95;;;;;;;14.02;90.53;99162.75;5135223;27;20087;-69
2023/09/22 02:13:32;;;;;;;3.83;0.90;;;;;;;14.07;92.65;99165.81;5135162;27;20086;-68
2023/09/22 02:16:35;;;;;;;4.22;0.70;;;;;;;14.02;95.02;99173.28;5136153;27;20525;-68
2023/09/22 02:19:38;;;;;;;6.22;0.90;;;;;;;13.96;95.75;99173.81;5136129;27;20042;-68
2023/09/22 02:22:43;;;;;;;3.70;0.65;;;;;;;14.04;95.01;99162.59;5135856;27;20091;-69
2023/09/22 02:25:46;;;;;;;6.13;0.90;;;;;;;14.14;95.35;99166.94;5135921;27;20038;-68
2023/09/22 02:28:51;;;;;;;3.92;0.93;;;;;;;14.00;95.68;99167.31;5135764;27;20103;-69
2023/09/22 02:31:55;;;;;;;6.72;1.50;;;;;;;13.96;96.63;99165.94;5135772;27;20497;-68
2023/09/22 02:34:58;;;;;;;4.93;1.00;;;;;;;13.96;96.25;99160.66;5135793;27;20104;-68
2023/09/22 02:38:01;;;;;;;4.68;0.88;;;;;;;13.92;95.87;99161.91;5135702;27;20046;-69
2023/09/22 02:41:04;;;;;;;7.82;0.73;;;;;;;13.90;96.73;99163.84;5134874;27;20057;-68
2023/09/22 02:44:09;;;;;;;3.22;1.25;;;;;;;13.78;95.69;99154.41;5135626;27;20046;-69
2023/09/22 02:47:14;;;;;;;3.53;0.68;;;;;;;13.70;97.32;99161.16;5134726;27;20099;-69
2023/09/22 02:50:18;;;;;;;5.10;0.70;;;;;;;13.73;96.53;99168.78;5135756;27;20050;-69
2023/09/22 02:53:21;;;;;;;9.48;1.10;;;;;;;13.71;96.26;99159.34;5134533;27;20138;-68
2023/09/22 02:56:24;;;;;;;4.18;0.93;;;;;;;13.67;96.55;99158.78;5135610;27;20084;-68
2023/09/22 02:59:28;;;;;;;9.57;0.82;;;;;;;13.65;95.59;99170.38;5135109;27;20062;-68
2023/09/22 03:02:31;;;;;;;6.93;0.90;;;;;;;13.49;96.42;99197.13;5134368;27;20038;-68
2023/09/22 03:05:34;;;;;;;8.80;1.40;;;;;;;13.14;99.48;99203.53;5135245;27;20042;-68
2023/09/22 03:08:39;;;;;;;5.90;1.23;;;;;;;13.15;99.92;99173.75;5134252;27;20107;-68
2023/09/22 03:11:42;;;;;;;7.00;0.98;;;;;;;13.31;98.63;99175.09;5134796;27;20103;-69
2023/09/22 03:14:48;;;;;;;5.30;0.93;;;;;;;13.42;98.55;99172.38;5134384;27;20046;-68
2023/09/22 03:17:52;;;;;;;6.78;1.00;;;;;;;13.33;98.69;99173.16;5134119;27;20123;-68
2023/09/22 03:20:55;;;;;;;5.90;1.25;;;;;;;13.40;97.55;99179.53;5135098;27;20042;-68
2023/09/22 03:23:58;;;;;;;6.47;1.15;;;;;;;13.35;97.56;99205.38;5135039;27;20064;-68
2023/09/22 03:27:02;;;;;;;8.57;0.88;;;;;;;13.36;97.14;99220.97;5134685;27;20041;-68
2023/09/22 03:30:09;;;;;;;7.07;0.95;;;;;;;13.42;96.18;99223.09;5133906;27;20068;-68
2023/09/22 03:33:13;;;;;;;5.57;0.95;;;;;;;13.45;95.21;99232.50;5133664;27;20068;-68
2023/09/22 03:36:16;;;;;;;;;;;;;;;13.46;95.03;99218.41;5134126;27;20130;-68
2023/09/22 03:39:21;;;;;;;;;;;;;;;13.45;95.13;99193.13;5134112;27;19956;-68
2023/09/22 03:42:25;;;;;;;4.43;0.90;;;;;;;13.50;95.18;99193.56;5134419;27;19972;-68
2023/09/22 03:45:28;;;;;;;10.90;1.10;;;;;;;13.53;95.17;99203.81;5133747;27;20398;-67
2023/09/22 03:48:31;;;;;;;;;;;;;;;13.51;95.60;99207.53;5133935;27;20046;-68
2023/09/22 03:51:34;;;;;;;4.38;0.93;;;;;;;13.33;96.81;99204.66;5134356;27;19922;-67
2023/09/22 03:54:37;;;;;;;9.07;1.10;;;;;;;13.23;97.30;99199.31;5132659;27;20111;-67
2023/09/22 03:57:40;;;;;;;6.15;1.10;;;;;;;13.32;97.14;99205.63;5133234;27;20042;-68
2023/09/22 04:00:43;;;;;;;7.30;1.13;;;;;;;13.38;96.66;99211.19;5134139;27;20088;-68
2023/09/22 04:03:47;;;;;;;5.57;0.77;;;;;;;13.41;96.83;99210.09;5133162;27;20167;-69
2023/09/22 04:06:54;;;;;;;4.18;1.08;;;;;;;13.34;97.30;99211.59;5132748;27;20054;-68
2023/09/22 04:09:58;;;;;;;8.02;1.65;;;;;;;13.40;97.02;99214.53;5133023;27;20049;-73
2023/09/22 04:13:02;;;;;;;7.15;1.33;;;;;;;13.31;97.53;99214.47;5132883;27;20505;-75
2023/09/22 04:16:06;;;;;;;6.70;1.00;;;;;;;13.42;96.73;99227.50;5133784;27;20047;-75
2023/09/22 04:19:09;;;;;;;7.70;1.00;;;;;;;13.26;96.20;99236.69;5133989;27;20049;-67
2023/09/22 04:22:16;;;;;;;4.60;0.85;;;;;;;13.32;97.92;99248.47;5133675;27;20506;-73
2023/09/22 04:25:29;;;;;;;7.00;1.15;;;;;;;13.26;96.97;99249.81;5133814;27;20096;-73
2023/09/22 04:28:33;;;;;;;4.28;1.48;;;;;;;13.21;97.94;99257.22;5133908;27;20115;-73
2023/09/22 04:31:36;;;;;;;4.85;1.38;;;;;;;13.25;97.95;99258.66;5132705;28;20094;-71
2023/09/22 04:34:39;;;;;;;5.50;1.42;;;;;;;13.31;97.52;99245.97;5133774;28;20042;-72
2023/09/22 04:37:46;;;;;;;3.92;0.95;;;;;;;13.36;97.31;99251.66;5133690;28;20114;-72
2023/09/22 04:40:56;;;;;;;7.88;2.10;;;;;;;13.41;97.38;99252.13;5133700;28;20043;-72
2023/09/22 04:44:00;;;;;;;2.80;1.05;;;;;;;13.47;96.95;99256.84;5133608;28;20066;-72
2023/09/22 04:47:03;;;;;;;7.07;1.20;;;;;;;13.45;96.38;99253.50;5133681;28;20166;-73
2023/09/22 04:50:09;;;;;;;9.02;1.88;;;;;;;13.57;96.04;99270.88;5125532;28;20046;-72
2023/09/22 04:53:15;;;;;;;2.30;0.90;;;;;;;13.63;95.67;99254.59;5133467;28;20130;-72
2023/09/22 04:56:22;;;;;;;4.78;1.02;;;;;;;13.58;94.94;99264.63;5132758;28;20046;-73
2023/09/22 04:59:29;;;;;;;3.90;0.88;;;;;;;13.62;95.17;99276.53;5133710;28;20621;-72
2023/09/22 05:02:52;;;;;;;5.85;1.10;;;;;;;13.34;96.41;99285.09;5133511;28;20047;-72
2023/09/22 05:06:21;;;;;;;5.18;0.85;;;;;;;13.31;97.63;99290.59;5130473;27;20077;-71
2023/09/22 05:09:29;;;;;;;2.80;0.95;;;;;;;13.39;97.63;99290.78;5137481;27;20097;-72
2023/09/22 05:12:51;;;;;;;6.65;1.73;;;;;;;13.52;97.08;99288.78;5096220;28;20082;-72
2023/09/22 05:15:54;;;;;;;7.10;1.50;;;;;;;13.60;97.22;99289.00;5096337;28;20100;-72
2023/09/22 05:18:59;;;;;;;8.50;0.90;;;;;;;13.71;96.43;99304.66;5096281;28;20043;-72
2023/09/22 05:22:03;;;;;;;2.88;0.75;;;;;;;13.65;96.26;99294.66;5096140;28;20090;-72
2023/09/22 05:25:07;;;;;;;4.65;1.15;;;;;;;13.67;96.25;99290.13;5096205;28;20055;-73
2023/09/22 05:28:11;;;;;;;3.03;0.80;;;;;;;13.71;95.99;99286.28;5094767;28;20035;-73
2023/09/22 05:31:15;;;;;;;2.75;0.80;;;;;;;13.78;95.39;99277.88;5094368;28;20488;-73
2023/09/22 05:34:19;;;;;;;8.40;1.30;;;;;;;13.72;95.69;99282.69;5094404;28;20043;-72
2023/09/22 05:37:22;;;;;;;3.35;0.80;;;;;;;13.65;96.38;99281.53;5094510;28;20093;-73
2023/09/22 05:40:26;;;;;;;3.30;0.63;;;;;;;13.64;96.64;99290.38;5094553;28;20050;-73
2023/09/22 05:43:32;;;;;;;5.47;0.80;;;;;;;13.63;96.57;99272.97;5094204;28;20047;-73
2023/09/22 05:46:35;;;;;;;3.92;0.55;;;;;;;13.69;96.62;99274.25;5093681;28;20093;-73
2023/09/22 05:49:39;;;;;;;5.97;0.73;;;;;;;13.71;96.64;99281.00;5081828;28;20067;-73
2023/09/22 05:52:42;;;;;;;8.68;0.85;;;;;;;13.71;96.31;99299.41;5076757;28;20130;-73
2023/09/22 05:55:45;;;;;;;3.38;0.93;;;;;;;13.69;96.81;99288.22;5074012;28;20499;-73
2023/09/22 05:58:49;;;;;;;4.40;1.08;;;;;;;13.49;97.84;99276.75;5074644;28;20063;-73
2023/09/22 06:01:53;;;;;;;2.53;0.90;;;;;;;13.57;97.68;99291.88;5073526;28;20086;-73
2023/09/22 06:04:58;;;;;;;4.30;0.98;;;;;;;13.63;97.16;99299.25;5073567;28;20044;-74
2023/09/22 06:08:01;;;;;;;2.42;1.00;;;;;;;13.59;97.99;99296.97;5079270;28;20462;-71
2023/09/22 06:11:06;;;;;;;6.90;0.98;;;;;;;13.63;97.58;99308.91;5107075;27;20103;-73
2023/09/22 06:14:11;;;;;;;6.72;1.40;;;;;;;13.65;96.99;99315.69;5133812;27;20116;-73
2023/09/22 06:17:15;;;;;;;2.42;0.73;;;;;;;13.64;97.47;99316.66;5126387;27;20050;-73
2023/09/22 06:20:20;;;;;;;5.68;0.65;;;;;;;13.62;97.21;99323.81;5124633;27;20083;-75
2023/09/22 06:23:25;;;;;;;7.60;1.33;;;;;;;13.62;97.28;99323.81;5120764;27;20046;-74
2023/09/22 06:26:28;;;;;;;2.63;0.90;;;;;;;13.68;96.76;99323.31;5121562;27;20288;-73
2023/09/22 06:29:32;;;;;;;3.22;0.95;;;;;;;13.70;96.37;99324.03;5125746;27;20070;-74
2023/09/22 06:32:41;;;;;;;4.28;0.75;;;;;;;13.81;96.42;99335.41;5121165;27;20092;-74
2023/09/22 06:35:46;;;;;;;7.80;0.90;;;;;;;13.77;97.26;99365.53;5123188;27;20046;-74
2023/09/22 06:38:50;;;;;;;5.53;1.02;;;;;;;13.75;97.63;99354.31;5125584;27;20058;-75
2023/09/22 06:41:53;;;;;;;4.70;1.08;;;;;;;13.71;97.23;99348.50;5122266;27;20106;-72
2023/09/22 06:44:57;;;;;;;4.63;0.70;;;;;;;13.68;97.86;99349.56;5132942;27;20057;-74
2023/09/22 06:48:00;;;;;;;2.97;0.80;;;;;;;13.63;99.12;99357.03;5133748;27;20501;-73
2023/09/22 06:51:04;;;;;;;4.55;0.90;;;;;;;13.77;99.29;99341.91;5112978;28;20368;-73
2023/09/22 06:54:07;;;;;;;2.72;0.75;;;;;;;13.84;97.85;99348.28;5113070;28;20133;-73
2023/09/22 06:57:10;;;;;;;7.35;1.00;;;;;;;13.80;98.11;99336.38;5113451;28;20411;-74
2023/09/22 07:00:23;;;;;;;4.75;0.95;;;;;;;13.87;97.74;99350.66;5112981;28;20100;-74
2023/09/22 07:03:26;;;;;;;5.55;0.88;;;;;;;13.85;98.03;99356.06;5113408;28;20043;-73
2023/09/22 07:06:33;;;;;;;2.50;0.68;;;;;;;13.99;97.90;99357.50;5112945;28;20397;-73
2023/09/22 07:09:43;;;;;;;6.30;1.10;;;;;;;13.88;100.00;99354.94;5111838;28;20058;-65
2023/09/22 07:12:47;;;;;;;6.93;1.40;;;;;;;13.69;100.00;99367.03;5112005;28;20119;-66
2023/09/22 07:15:53;;;;;;;2.60;0.90;;;;;;;13.76;100.00;99356.81;5112665;28;20046;-64
2023/09/22 07:18:56;;;;;;;8.50;1.02;;;;;;;13.93;100.00;99365.91;5111731;28;20047;-72
2023/09/22 07:21:59;;;;;;;4.05;1.00;;;;;;;13.99;100.00;99373.28;5112350;28;20105;-73
2023/09/22 07:25:03;;;;;;;4.47;0.57;;;;;;;14.08;98.31;99372.50;5112634;28;20074;-73
2023/09/22 07:28:08;;;;;;;3.50;1.25;;;;;;;14.18;98.11;99367.28;5111983;28;20050;-72
2023/09/22 07:31:15;;;;;;;5.30;0.85;;;;;;;14.25;97.61;99378.09;5112519;28;20130;-72
2023/09/22 07:34:21;;;;;;;4.22;0.93;;;;;;;14.30;97.01;99375.94;5112316;28;20148;-72
2023/09/22 07:37:26;;;;;;;3.17;0.50;;;;;;;14.35;96.68;99366.66;5112590;28;20074;-72
2023/09/22 07:40:29;;;;;;;2.33;0.50;;;;;;;14.36;95.66;99381.50;5112476;28;20094;-71
2023/09/22 07:43:35;;;;;;;4.85;0.75;;;;;;;14.29;96.82;99380.31;5112753;28;20038;-71
2023/09/22 07:46:40;;;;;;;3.25;0.77;;;;;;;14.39;96.46;99383.03;5112418;28;20039;-71
2023/09/22 07:49:44;;;;;;;5.55;0.80;;;;;;;14.43;96.17;99384.41;5112244;28;20043;-71
2023/09/22 07:52:49;;;;;;;7.97;1.15;;;;;;;14.30;98.02;99382.00;5112191;28;20089;-69
2023/09/22 07:55:55;;;;;;;3.60;0.80;;;;;;;14.43;97.23;99363.38;5110964;28;20047;-79
2023/09/22 07:58:59;;;;;;;3.60;0.80;;;;;;;14.57;96.33;99373.53;5112061;28;20038;-80
2023/09/22 08:02:03;;;;;;;4.22;0.70;;;;;;;14.71;97.08;99364.47;5111791;28;20107;-78
2023/09/22 08:05:07;;;;;;;4.25;0.80;;;;;;;14.77;95.83;99365.69;5111642;28;20410;-78
2023/09/22 08:08:10;;;;;;;5.57;0.85;;;;;;;14.76;97.04;99369.31;5111531;28;20171;-73
2023/09/22 08:11:14;;;;;;;2.83;0.90;;;;;;;14.97;95.84;99367.41;5111354;28;20066;-77
2023/09/22 08:14:17;;;;;;;4.80;0.88;;;;;;;14.96;96.19;99365.75;5110420;28;20046;-78
2023/09/22 08:17:20;;;;;;;3.83;0.82;;;;;;;14.99;95.67;99367.28;5111243;28;20039;-76
2023/09/22 08:20:24;;;;;;;8.07;1.15;;;;;;;15.08;97.42;99362.00;5111308;28;20042;-79
2023/09/22 08:23:27;;;;;;;4.90;1.17;;;;;;;15.15;99.08;99372.00;5110591;28;20085;-71
2023/09/22 08:26:31;;;;;;;6.43;1.58;;;;;;;15.29;98.68;99375.06;5111371;28;20092;-76
2023/09/22 08:29:34;;;;;;;4.30;1.73;;;;;;;15.56;98.89;99381.44;5110243;28;20050;-76
2023/09/22 08:32:39;;;;;;;5.38;1.05;;;;;;;15.53;85.62;99379.06;5110528;28;20104;-77
2023/09/22 08:35:48;;;;;;;3.47;0.68;;;;;;;15.78;80.86;99364.50;5110857;28;20042;-81
2023/09/22 08:38:54;;;;;;;4.18;1.08;;;;;;;15.88;76.03;99352.13;5111356;28;20116;-86
2023/09/22 08:42:01;;;;;;;2.75;0.63;;;;;;;16.02;76.72;99356.16;5115589;28;20047;-83
2023/09/22 08:45:06;;;;;;;4.30;1.15;;;;;;;16.14;74.25;99357.59;5127147;27;20547;-85
2023/09/22 08:48:09;;;;;;;4.22;0.95;;;;;;;16.28;74.19;99362.44;5121179;27;20096;-83
2023/09/22 08:51:14;;;;;;;5.88;0.88;;;;;;;16.24;73.84;99370.75;5126563;27;20042;-83
2023/09/22 08:54:51;;;;;;;4.88;1.05;;;;;;;16.17;74.27;99375.78;5104615;27;20043;-83
2023/09/22 08:58:01;;;;;;;5.43;0.88;;;;;;;16.06;73.73;99383.06;5126298;27;20092;-85
2023/09/22 09:01:35;;;;;;;5.25;0.90;;;;;;;15.94;74.08;99380.56;5124827;27;20126;-85
2023/09/22 09:04:40;;;;;;;5.00;1.05;;;;;;;16.03;71.96;99384.16;5122882;27;20041;-83
2023/09/22 09:07:48;;;;;;;4.38;0.75;;;;;;;16.12;70.85;99385.13;5124965;27;20179;-82
2023/09/22 09:10:52;;;;;;;5.82;1.15;;;;;;;16.36;70.40;99385.44;5124888;27;20065;-83
2023/09/22 09:14:23;;;;;;;4.53;1.33;;;;;;;16.35;69.66;99389.06;5123063;27;20552;-85
2023/09/22 09:18:29;;;;;;;2.25;0.63;;;;;;;16.17;72.60;99382.88;5123011;27;20076;-85
2023/09/22 09:22:38;;;;;;;3.83;0.90;;;;;;;15.97;69.19;99395.28;5121606;27;20045;-85
2023/09/22 09:26:01;;;;;;;5.07;1.02;;;;;;;16.00;68.26;99387.91;5121711;27;20080;-81
2023/09/22 09:29:05;;;;;;;5.57;1.92;;;;;;;15.83;68.54;99387.81;5124996;27;20085;-82
2023/09/22 09:32:08;;;;;;;5.85;1.50;;;;;;;15.75;68.37;99383.25;5124030;27;20053;-81
2023/09/22 09:35:38;;;;;;;7.70;1.75;;;;;;;15.93;67.82;99375.44;5124705;27;20464;-85
2023/09/22 09:38:43;;;;;;;6.28;2.20;;;;;;;16.09;67.81;99372.22;5123776;27;20096;-78
2023/09/22 09:41:47;;;;;;;7.30;1.27;;;;;;;16.13;68.11;99370.94;5124273;27;20096;-79
2023/09/22 09:44:54;;;;;;;4.50;0.88;;;;;;;16.25;67.35;99380.34;5125596;27;20475;-79
2023/09/22 09:47:59;;;;;;;5.78;1.25;;;;;;;16.30;65.61;99377.25;5121955;27;20463;-79
2023/09/22 09:51:09;;;;;;;8.07;1.35;;;;;;;16.37;63.57;99378.34;5122450;27;20418;-80
2023/09/22 09:54:19;;;;;;;5.10;1.15;;;;;;;16.44;64.33;99377.63;5120490;27;20123;-86
2023/09/22 09:57:23;;;;;;;4.60;0.88;;;;;;;16.42;63.23;99382.22;5116205;27;20111;-83
2023/09/22 10:00:27;;;;;;;3.78;0.82;;;;;;;16.36;64.88;99389.88;5121832;27;20046;-83
2023/09/22 10:03:36;;;;;;;3.95;0.70;;;;;;;16.35;64.70;99380.31;5121573;27;20418;-77
2023/09/22 10:06:41;;;;;;;4.88;0.73;;;;;;;16.30;64.51;99391.28;5124800;27;20571;-79
2023/09/22 10:09:45;;;;;;;3.03;0.88;;;;;;;16.42;67.13;99384.03;5122546;27;20161;-79
2023/09/22 10:12:49;;;;;;;4.82;0.90;;;;;;;16.45;66.45;99384.56;5124378;27;20486;-80
2023/09/22 10:16:00;;;;;;;4.55;0.82;;;;;;;16.41;65.56;99387.66;5120980;27;20045;-80
2023/09/22 10:19:04;;;;;;;3.20;0.90;;;;;;;16.60;66.05;99371.72;5124792;27;20058;-79
2023/09/22 10:22:12;;;;;;;6.10;1.70;;;;;;;16.89;65.57;99378.69;5127993;27;20403;-77
2023/09/22 10:25:18;;;;;;;5.45;2.72;;;;;;;16.94;64.26;99373.75;5128306;27;20498;-77
2023/09/22 10:28:28;;;;;;;7.28;1.25;;;;;;;17.19;63.82;99367.75;5125885;27;20121;-80
2023/09/22 10:31:32;;;;;;;5.90;2.33;;;;;;;17.34;63.14;99369.88;5124070;27;20445;-81
2023/09/22 10:34:53;;;;;;;4.07;1.25;;;;;;;17.47;62.71;99382.69;5119697;27;20051;-71
2023/09/22 10:38:04;;;;;;;4.95;1.05;;;;;;;17.72;62.63;99373.16;5125755;27;20093;-65
2023/09/22 10:41:11;;;;;;;3.83;0.95;;;;;;;17.92;60.82;99364.06;5122733;27;20122;-66
2023/09/22 10:44:16;;;;;;;3.70;1.00;;;;;;;18.14;61.10;99375.94;5122886;27;20551;-66
2023/09/22 10:47:19;;;;;;;3.22;0.90;;;;;;;18.26;60.68;99365.91;5121375;27;20096;-67
2023/09/22 10:50:30;;;;;;;4.40;0.90;;;;;;;18.25;58.71;99380.97;5122849;27;20058;-66
2023/09/22 10:53:38;;;;;;;5.68;1.05;;;;;;;18.13;60.22;99384.88;5120540;27;20054;-66
2023/09/22 10:56:43;;;;;;;4.82;1.02;;;;;;;18.04;58.46;99377.88;5122877;27;20452;-66
2023/09/22 10:59:47;;;;;;;3.58;0.90;;;;;;;17.93;58.32;99386.03;5123568;27;20093;-66
2023/09/22 11:02:50;;;;;;;3.00;0.77;;;;;;;17.89;58.20;99385.53;5123675;27;20095;-66
2023/09/22 11:05:59;;;;;;;3.63;1.33;;;;;;;17.88;57.51;99394.47;5121051;27;20050;-66
2023/09/22 11:13:09;;;;;;;3.90;1.00;;;;;;;18.10;57.21;99383.34;5123155;27;20506;-76
2023/09/22 11:16:18;;;;;;;3.53;0.90;;;;;;;18.18;57.73;99395.78;5121686;27;20050;-74
2023/09/22 11:19:22;;;;;;;4.43;1.08;;;;;;;18.21;57.48;99390.19;5121653;27;20058;-77
2023/09/22 11:22:32;;;;;;;5.43;0.90;;;;;;;18.35;56.81;99397.56;5121440;27;20050;-76
2023/09/22 11:25:35;;;;;;;3.22;0.88;;;;;;;18.20;56.58;99391.19;5122375;27;20042;-77
2023/09/22 11:28:46;;;;;;;4.97;1.00;;;;;;;18.29;56.33;99387.59;5122643;27;20046;-77
2023/09/22 11:31:56;;;;;;;4.70;0.98;;;;;;;18.47;56.50;99397.28;5121756;27;20160;-76
2023/09/22 11:34:59;;;;;;;3.72;1.08;;;;;;;18.35;56.07;99376.38;5122555;27;20572;-76
2023/09/22 11:38:27;;;;;;;6.20;1.10;;;;;;;18.55;56.46;99381.44;5122800;27;20548;-76
2023/09/22 11:41:32;;;;;;;7.63;1.83;;;;;;;18.78;57.03;99382.53;5120395;27;20119;-76
2023/09/22 11:44:36;;;;;;;4.47;1.23;;;;;;;18.74;55.10;99380.38;5121731;27;20387;-76
2023/09/22 11:47:40;;;;;;;3.08;1.27;;;;;;;18.53;54.07;99375.47;5122116;27;20039;-77
2023/09/22 11:50:54;;;;;;;5.60;0.70;;;;;;;18.63;54.43;99380.63;5122934;27;20485;-76
2023/09/22 11:53:58;;;;;;;5.72;1.02;;;;;;;18.85;56.58;99379.25;5121201;27;20537;-70
2023/09/22 11:57:05;;;;;;;3.65;0.90;;;;;;;18.87;53.18;99390.53;5116451;27;20058;-76
2023/09/22 12:00:13;;;;;;;4.72;0.80;;;;;;;18.97;53.69;99375.31;5122026;27;20686;-76
2023/09/22 12:03:18;;;;;;;2.85;1.23;;;;;;;18.84;52.68;99375.78;5114660;27;20050;-77
2023/09/22 12:06:21;;;;;;;4.60;0.82;;;;;;;18.90;52.94;99371.66;5131932;27;20192;-75
2023/09/22 12:09:25;;;;;;;3.10;1.08;;;;;;;19.01;51.18;99371.34;5131870;27;20049;-77
2023/09/22 12:12:31;;;;;;;3.03;0.93;;;;;;;19.08;50.33;99364.41;5132104;27;20046;-73
2023/09/22 12:15:35;;;;;;;3.45;0.77;;;;;;;19.29;47.94;99359.44;5120704;27;20093;-74
2023/09/22 12:18:38;;;;;;;2.33;0.70;;;;;;;19.42;47.94;99366.09;5119131;27;20407;-71
2023/09/22 12:21:48;;;;;;;6.70;2.28;;;;;;;19.73;47.66;99361.81;5131732;27;20042;-78
2023/09/22 12:24:55;;;;;;;3.40;0.98;;;;;;;19.79;48.44;99355.00;5132538;27;20042;-81
2023/09/22 12:27:59;;;;;;;3.78;1.40;;;;;;;20.16;46.91;99348.28;5110543;28;20529;-82
2023/09/22 12:31:02;;;;;;;4.13;1.15;;;;;;;20.34;46.51;99345.41;5098878;28;20092;-82
2023/09/22 12:34:06;;;;;;;6.25;1.40;;;;;;;20.82;46.01;99351.53;5111599;28;20058;-73
2023/09/22 12:37:15;;;;;;;5.00;1.30;;;;;;;20.92;45.36;99352.13;5111116;28;20054;-75
2023/09/22 12:40:18;;;;;;;3.85;0.98;;;;;;;21.04;44.88;99345.41;5111360;28;20042;-77
2023/09/22 12:43:21;;;;;;;3.67;1.30;;;;;;;20.94;44.82;99349.31;5111108;28;20046;-75
2023/09/22 12:46:25;;;;;;;3.28;0.95;;;;;;;20.69;44.69;99356.56;5111578;28;20077;-77
2023/09/22 12:49:29;;;;;;;3.47;0.90;;;;;;;20.06;46.56;99351.13;5111211;28;20089;-80
2023/09/22 12:53:01;;;;;;;4.60;0.82;;;;;;;19.85;47.13;99353.50;5113062;28;20043;-80
2023/09/22 12:56:10;;;;;;;5.35;2.00;;;;;;;20.16;45.94;99341.13;5112923;28;20453;-75
2023/09/22 12:59:14;;;;;;;3.85;1.10;;;;;;;19.47;48.03;99335.44;5111956;28;20052;-77
2023/09/22 13:02:20;;;;;;;6.00;1.08;;;;;;;19.67;47.92;99340.44;5110743;28;20043;-76
2023/09/22 13:05:27;;;;;;;3.47;0.95;;;;;;;19.35;51.17;99341.25;5110115;28;20050;-75
2023/09/22 13:08:33;;;;;;;4.97;1.17;;;;;;;20.82;45.54;99335.59;5110752;28;20046;-74
2023/09/22 13:11:36;;;;;;;4.25;0.95;;;;;;;20.20;47.24;99331.84;5110075;28;20070;-74
2023/09/22 13:14:41;;;;;;;3.47;1.23;;;;;;;19.44;49.15;99334.94;5109976;28;20441;-72
2023/09/22 13:17:46;;;;;;;2.88;0.70;;;;;;;22.32;42.23;99317.16;5110007;28;20086;-74
2023/09/22 13:20:51;;;;;;;3.97;1.40;;;;;;;21.68;44.30;99326.47;5110938;28;20120;-71
2023/09/22 13:23:54;;;;;;;6.10;1.73;;;;;;;21.31;45.69;99340.56;5110739;28;20069;-71
2023/09/22 13:30:28;;;;;;;6.18;1.90;;;;;;;20.65;46.14;99335.69;5122858;27;20460;-82
2023/09/22 13:33:39;;;;;;;3.33;0.98;;;;;;;23.82;40.03;99320.72;5124220;27;20039;-81
2023/09/22 13:36:50;;;;;;;4.85;1.73;;;;;;;22.47;39.86;99332.13;5122210;27;20042;-82
2023/09/22 13:40:00;;;;;;;3.28;1.10;;;;;;;25.12;35.24;99315.53;5125206;27;20081;-82
2023/09/22 13:43:15;;;;;;;6.20;1.33;;;;;;;28.90;29.32;99302.44;5124556;27;20038;-81
2023/09/22 13:46:22;;;;;;;6.78;1.60;;;;;;;30.20;26.93;99298.03;5121783;27;20106;-80
2023/09/22 13:49:27;;;;;;;3.35;1.23;;;;;;;31.00;25.73;99299.84;5116998;27;20127;-81
2023/09/22 13:52:32;;;;;;;2.37;1.13;;;;;;;31.71;24.44;99294.75;5135332;27;20045;-81
2023/09/22 13:55:38;;;;;;;2.75;1.00;;;;;;;30.00;27.43;99289.50;5135320;27;20076;-80
2023/09/22 13:58:43;;;;;;;2.80;1.13;;;;;;;29.57;27.42;99285.28;5135051;27;20099;-80
2023/09/22 14:01:46;;;;;;;3.28;1.65;;;;;;;31.19;25.47;99276.13;5135223;27;20077;-78
2023/09/22 14:04:50;;;;;;;5.07;1.45;;;;;;;32.62;23.40;99271.88;5134894;27;20095;-79
2023/09/22 14:07:55;;;;;;;3.03;1.00;;;;;;;28.02;28.75;99276.91;5135292;27;20414;-77
2023/09/22 14:11:04;;;;;;;3.67;1.48;;;;;;;32.95;22.67;99264.59;5134826;27;20054;-80
2023/09/22 14:14:11;;;;;;;4.28;1.10;;;;;;;33.36;21.96;99273.09;5133302;27;20132;-76
2023/09/22 14:17:15;;;;;;;3.45;1.40;;;;;;;35.11;20.58;99265.38;5133565;27;20075;-77
2023/09/22 14:20:20;;;;;;;3.28;1.25;;;;;;;35.93;19.27;99265.22;5134560;27;20061;-79
2023/09/22 14:23:24;;;;;;;3.60;1.67;;;;;;;29.66;25.50;99290.09;5134568;27;20034;-79
2023/09/22 14:26:28;;;;;;;3.10;1.00;;;;;;;30.35;23.81;99284.03;5134382;27;20052;-81
2023/09/22 14:30:03;;;;;;;4.78;0.90;;;;;;;26.99;28.72;99279.22;5132576;27;20123;-82
2023/09/22 14:33:18;;;;;;;6.03;1.20;;;;;;;30.15;25.38;99268.22;5126936;27;20047;-83
2023/09/22 14:36:22;;;;;;;4.63;1.45;;;;;;;32.35;22.68;99263.69;5133415;27;20061;-82
2023/09/22 14:39:27;;;;;;;3.88;1.08;;;;;;;31.86;22.77;99255.53;5133195;27;20043;-83
2023/09/22 14:42:34;;;;;;;4.32;1.13;;;;;;;31.15;23.68;99266.88;5134774;27;20074;-81
2023/09/22 14:45:38;;;;;;;2.95;1.10;;;;;;;29.17;26.60;99269.81;5130557;27;20522;-82